Time;durP1;ratioP1;P1;durP2;ratioP2;P2;SDS_P1;SDS_P2;PMS_P1;PMS_P2;Temp;Humidity;BMP_temperature;BMP_pressure;BME280_temperature;BME280_humidity;BME280_pressure;Samples;Min_cycle;Max_cycle;Signal;HPM_P1;HPM_P2
2022/03/24 00:00:39;;;;;;;17.60;8.00;;;;;;;4.31;50.34;99279.58;105174;1271;61207;-28
2022/03/24 00:03:09;;;;;;;16.40;7.50;;;;;;;4.28;50.46;99276.49;104987;1271;61832;-28
2022/03/24 00:05:41;;;;;;;12.60;8.00;;;;;;;4.23;50.85;99280.02;104929;1271;75396;-28
2022/03/24 00:08:30;;;;;;;17.40;7.60;;;;;;;4.16;50.93;99274.54;104867;1271;77075;-28
2022/03/24 00:11:00;;;;;;;12.40;7.20;;;;;;;4.12;51.21;99263.70;104923;1271;74184;-28
2022/03/24 00:13:50;;;;;;;14.20;7.30;;;;;;;4.11;51.23;99261.01;104638;1271;61512;-28
2022/03/24 00:16:19;;;;;;;17.00;8.40;;;;;;;4.08;51.44;99258.59;104740;1272;62099;-28
2022/03/24 00:19:08;;;;;;;19.30;8.40;;;;;;;4.04;51.53;99261.70;104883;1271;76034;-28
2022/03/24 00:21:38;;;;;;;13.80;7.90;;;;;;;4.00;51.77;99257.98;104906;1271;75031;-28
2022/03/24 00:24:08;;;;;;;16.20;8.50;;;;;;;3.96;51.89;99252.52;104930;1271;73359;-28
2022/03/24 00:26:39;;;;;;;18.10;7.70;;;;;;;3.95;51.76;99242.92;104839;1271;61082;-28
2022/03/24 00:29:09;;;;;;;16.40;8.10;;;;;;;3.98;51.88;99242.45;105112;1274;61130;-28
2022/03/24 00:31:38;;;;;;;14.50;7.90;;;;;;;3.97;51.83;99234.41;104890;1271;74299;-28
2022/03/24 00:34:10;;;;;;;13.90;8.00;;;;;;;3.96;51.83;99233.98;104918;1271;77860;-28
2022/03/24 00:36:39;;;;;;;16.70;8.00;;;;;;;3.91;51.78;99229.23;104741;1274;73272;-28
2022/03/24 00:39:09;;;;;;;17.30;7.80;;;;;;;3.82;52.04;99227.25;104898;1271;61145;-28
2022/03/24 00:41:38;;;;;;;15.30;8.30;;;;;;;3.75;51.94;99225.57;104932;1271;60969;-28
2022/03/24 00:44:09;;;;;;;14.00;7.50;;;;;;;3.68;52.07;99222.13;105060;1271;73462;-28
2022/03/24 00:46:38;;;;;;;14.60;7.70;;;;;;;3.64;52.16;99220.98;104960;1272;74011;-28
2022/03/24 00:49:08;;;;;;;11.90;7.60;;;;;;;3.61;52.27;99218.02;104902;1271;72158;-28
2022/03/24 00:51:38;;;;;;;16.20;8.00;;;;;;;3.57;52.62;99214.41;104775;1271;61538;-28
2022/03/24 00:54:09;;;;;;;15.30;7.90;;;;;;;3.56;52.62;99211.21;104768;1271;61039;-28
2022/03/24 00:56:38;;;;;;;19.50;7.90;;;;;;;3.54;52.85;99208.40;104812;1271;74652;-28
2022/03/24 00:59:09;;;;;;;13.10;7.40;;;;;;;3.50;53.19;99207.40;104897;1271;76106;-28
2022/03/24 01:01:41;;;;;;;11.90;6.80;;;;;;;3.45;53.76;99209.70;104766;1272;74615;-28
2022/03/24 01:04:12;;;;;;;16.90;9.80;;;;;;;3.39;53.75;99207.77;104842;1271;61085;-28
2022/03/24 01:06:43;;;;;;;16.90;8.50;;;;;;;3.34;54.23;99206.64;104837;1271;61178;-28
2022/03/24 01:09:15;;;;;;;;;;;;;;;3.32;54.18;99203.45;105021;1271;75173;-28
2022/03/24 01:11:45;;;;;;;14.00;8.20;;;;;;;3.29;54.45;99202.77;104852;1271;75046;-28
2022/03/24 01:14:16;;;;;;;15.80;8.90;;;;;;;3.26;54.81;99200.65;104869;1271;74490;-28
2022/03/24 01:16:46;;;;;;;16.60;8.00;;;;;;;3.27;54.91;99199.09;104742;1274;61329;-28
2022/03/24 01:19:16;;;;;;;17.80;8.10;;;;;;;3.30;54.77;99198.09;104762;1274;61091;-29
2022/03/24 01:21:45;;;;;;;16.20;8.50;;;;;;;3.28;54.81;99197.66;104807;1271;73549;-28
2022/03/24 01:24:38;;;;;;;19.10;8.70;;;;;;;3.23;55.16;99193.77;104831;1271;76075;-28
2022/03/24 01:27:10;;;;;;;15.50;8.20;;;;;;;3.20;55.28;99195.80;104789;1271;73551;-28
2022/03/24 01:29:39;;;;;;;14.20;8.10;;;;;;;3.18;55.68;99189.20;104894;1271;61125;-29
2022/03/24 01:32:10;;;;;;;18.10;9.60;;;;;;;3.16;55.99;99185.20;104820;1272;61180;-28
2022/03/24 01:34:40;;;;;;;16.70;8.10;;;;;;;3.14;56.23;99184.94;104909;1271;75539;-28
2022/03/24 01:37:11;;;;;;;16.30;8.40;;;;;;;3.11;56.29;99183.37;104828;1271;76410;-28
2022/03/24 01:39:40;;;;;;;17.30;8.30;;;;;;;3.04;56.42;99184.59;104790;1274;74495;-28
2022/03/24 01:42:10;;;;;;;15.90;8.80;;;;;;;3.00;56.57;99183.57;104830;1271;61150;-29
2022/03/24 01:44:39;;;;;;;15.30;8.30;;;;;;;2.99;56.66;99180.86;104855;1274;61127;-28
2022/03/24 01:47:09;;;;;;;15.70;8.10;;;;;;;2.98;56.73;99181.09;105041;1271;74319;-28
2022/03/24 01:49:40;;;;;;;14.30;8.10;;;;;;;2.91;57.11;99187.23;104797;1271;76081;-28
2022/03/24 01:52:14;;;;;;;16.10;9.50;;;;;;;2.85;57.53;99182.36;104719;1272;73592;-28
2022/03/24 01:54:45;;;;;;;22.60;8.70;;;;;;;2.82;57.61;99180.80;104785;1272;61086;-28
2022/03/24 01:57:16;;;;;;;18.20;8.90;;;;;;;2.79;57.81;99179.75;104796;1272;61819;-28
2022/03/24 01:59:46;;;;;;;16.90;8.40;;;;;;;2.74;57.98;99179.83;104659;1272;74562;-28
2022/03/24 02:02:16;;;;;;;15.50;8.00;;;;;;;2.69;58.47;99180.55;104794;1274;75004;-28
2022/03/24 02:04:46;;;;;;;22.70;9.20;;;;;;;2.66;58.53;99175.52;104739;1272;73267;-28
2022/03/24 02:07:16;;;;;;;17.80;9.30;;;;;;;2.62;58.96;99177.96;104801;1274;61160;-29
2022/03/24 02:10:09;;;;;;;18.60;9.90;;;;;;;2.59;59.17;99177.26;104853;1271;61805;-28
2022/03/24 02:12:40;;;;;;;20.90;10.00;;;;;;;2.54;59.50;99179.36;104685;1272;74732;-28
2022/03/24 02:15:10;;;;;;;22.30;11.10;;;;;;;2.46;59.87;99178.02;104919;1271;73941;-28
2022/03/24 02:17:41;;;;;;;20.60;10.50;;;;;;;2.40;60.23;99180.50;104845;1271;74578;-28
2022/03/24 02:20:33;;;;;;;16.80;9.90;;;;;;;2.34;60.58;99176.52;104775;1271;61098;-28
2022/03/24 02:23:05;;;;;;;21.10;10.50;;;;;;;2.30;60.56;99179.23;104871;1271;61141;-28
2022/03/24 02:25:38;;;;;;;20.70;11.50;;;;;;;2.28;60.91;99179.02;104782;1271;75358;-28
2022/03/24 02:28:08;;;;;;;20.40;10.70;;;;;;;2.22;61.05;99180.75;104896;1271;75805;-28
2022/03/24 02:30:37;;;;;;;21.70;11.10;;;;;;;2.18;61.35;99182.86;105156;1272;74404;-28
2022/03/24 02:33:07;;;;;;;21.10;10.40;;;;;;;2.14;61.14;99184.23;105103;1271;61599;-28
2022/03/24 02:35:36;;;;;;;25.00;12.30;;;;;;;2.11;61.68;99185.39;104802;1271;61029;-28
2022/03/24 02:38:06;;;;;;;20.00;10.70;;;;;;;2.06;61.70;99183.20;104800;1271;75734;-28
2022/03/24 02:40:35;;;;;;;19.00;11.30;;;;;;;2.02;61.94;99180.99;104795;1271;74824;-28
2022/03/24 02:43:05;;;;;;;22.90;11.30;;;;;;;1.94;62.13;99182.89;104874;1271;73234;-28
2022/03/24 02:45:34;;;;;;;32.30;12.70;;;;;;;1.88;62.39;99180.75;104914;1271;61228;-28
2022/03/24 02:48:05;;;;;;;24.30;11.50;;;;;;;1.86;62.41;99182.36;104904;1271;61090;-28
2022/03/24 02:50:34;;;;;;;19.90;11.20;;;;;;;1.79;62.51;99180.45;104801;1271;75490;-30
2022/03/24 02:53:04;;;;;;;17.60;8.70;;;;;;;1.72;62.43;99187.95;104429;1271;699492;-29
2022/03/24 02:55:34;;;;;;;18.60;9.50;;;;;;;1.63;62.72;99187.45;104750;1271;73504;-28
2022/03/24 02:58:04;;;;;;;17.20;8.50;;;;;;;1.55;63.19;99180.80;104938;1271;61223;-29
2022/03/24 03:00:33;;;;;;;26.50;12.30;;;;;;;1.47;63.59;99185.71;104939;1271;61088;-29
2022/03/24 03:03:02;;;;;;;19.80;10.80;;;;;;;1.42;63.41;99185.77;104841;1271;75598;-31
2022/03/24 03:05:32;;;;;;;18.60;10.90;;;;;;;1.38;63.58;99188.65;104978;1271;75136;-31
2022/03/24 03:08:02;;;;;;;19.00;10.40;;;;;;;1.32;63.56;99184.43;105053;1271;74588;-29
2022/03/24 03:10:51;;;;;;;20.10;10.10;;;;;;;1.27;64.07;99185.86;105051;1271;61164;-28
2022/03/24 03:13:21;;;;;;;21.70;10.60;;;;;;;1.22;64.33;99187.77;105136;1271;62150;-31
2022/03/24 03:16:10;;;;;;;19.70;10.40;;;;;;;1.15;64.64;99192.33;105119;1271;75696;-30
2022/03/24 03:18:42;;;;;;;22.30;12.90;;;;;;;1.12;64.80;99190.39;105157;1271;76030;-32
2022/03/24 03:21:31;;;;;;;22.00;11.90;;;;;;;1.06;64.91;99190.98;105133;1271;74632;-30
2022/03/24 03:24:02;;;;;;;24.50;12.10;;;;;;;1.01;65.21;99189.63;104863;1271;61154;-29
2022/03/24 03:26:32;;;;;;;20.20;10.50;;;;;;;1.40;64.49;99192.02;105112;1271;61761;-29
2022/03/24 03:29:02;;;;;;;22.50;11.20;;;;;;;2.24;61.68;99185.65;105138;1271;75360;-29
2022/03/24 03:31:31;;;;;;;23.20;10.60;;;;;;;2.52;59.86;99189.20;105138;1271;75992;-29
2022/03/24 03:34:01;;;;;;;22.40;9.60;;;;;;;2.44;60.13;99190.09;105130;1274;74803;-29
2022/03/24 03:36:31;;;;;;;20.20;10.30;;;;;;;2.25;60.27;99190.42;104706;1271;61157;-29
2022/03/24 03:39:00;;;;;;;22.20;10.60;;;;;;;2.02;60.68;99190.59;104927;1271;61032;-29
2022/03/24 03:41:30;;;;;;;15.80;7.90;;;;;;;1.79;61.71;99190.36;104885;1271;75428;-29
2022/03/24 03:44:03;;;;;;;20.40;11.00;;;;;;;1.56;61.76;99191.69;105080;1271;76073;-29
2022/03/24 03:46:32;;;;;;;21.40;11.60;;;;;;;1.42;62.24;99190.02;105080;1272;74454;-29
2022/03/24 03:49:03;;;;;;;27.90;11.30;;;;;;;1.33;62.59;99196.75;105031;1271;61028;-29
2022/03/24 03:51:43;;;;;;;33.60;15.70;;;;;;;1.25;62.88;99198.77;104856;1271;62614;-29
2022/03/24 03:54:12;;;;;;;23.10;10.20;;;;;;;1.35;63.16;99200.08;105092;1271;75719;-28
2022/03/24 03:56:41;;;;;;;23.20;10.80;;;;;;;1.43;62.83;99204.18;104893;1271;75000;-28
2022/03/24 03:59:12;;;;;;;20.70;12.50;;;;;;;1.49;62.58;99204.12;104982;1271;73614;-29
2022/03/24 04:01:41;;;;;;;14.60;8.50;;;;;;;1.53;62.67;99201.73;104980;1274;61738;-29
2022/03/24 04:04:12;;;;;;;27.50;13.90;;;;;;;1.48;62.50;99202.95;104868;1271;62336;-29
2022/03/24 04:06:42;;;;;;;24.30;13.00;;;;;;;1.45;62.47;99206.69;105041;1271;75556;-29
2022/03/24 04:09:31;;;;;;;24.10;13.30;;;;;;;1.36;62.65;99204.64;104912;1271;76268;-29
2022/03/24 04:12:01;;;;;;;24.30;12.00;;;;;;;1.30;62.78;99209.86;104918;1271;74164;-29
2022/03/24 04:14:32;;;;;;;17.80;8.80;;;;;;;1.27;62.77;99206.55;104705;1271;61039;-29
2022/03/24 04:17:03;;;;;;;15.20;8.70;;;;;;;1.20;63.06;99207.50;104984;1271;62281;-29
2022/03/24 04:19:33;;;;;;;21.10;10.00;;;;;;;1.10;63.54;99205.00;104911;1271;73287;-28
2022/03/24 04:22:03;;;;;;;23.10;11.40;;;;;;;0.95;64.40;99206.42;104950;1271;75108;-28
2022/03/24 04:24:32;;;;;;;21.80;12.00;;;;;;;0.84;64.59;99202.77;104824;1271;72369;-29
2022/03/24 04:27:02;;;;;;;24.20;12.80;;;;;;;0.73;64.62;99204.02;104852;1271;61146;-29
2022/03/24 04:29:32;;;;;;;22.40;12.60;;;;;;;0.64;64.96;99202.34;104795;1271;62191;-28
2022/03/24 04:32:01;;;;;;;21.10;12.40;;;;;;;0.61;65.30;99206.57;104902;1274;75750;-28
2022/03/24 04:34:31;;;;;;;16.30;9.10;;;;;;;0.70;65.11;99209.28;105119;1271;73656;-29
2022/03/24 04:37:00;;;;;;;22.50;11.50;;;;;;;1.35;63.20;99213.55;105134;1271;74903;-29
2022/03/24 04:39:30;;;;;;;19.40;11.30;;;;;;;2.04;61.24;99217.56;105020;1271;61025;-29
2022/03/24 04:41:59;;;;;;;18.60;10.90;;;;;;;2.20;60.33;99218.02;104839;1273;61124;-29
2022/03/24 04:44:29;;;;;;;20.60;11.30;;;;;;;1.95;61.25;99218.27;105064;1271;75863;-29
2022/03/24 04:46:58;;;;;;;23.80;12.30;;;;;;;1.70;62.14;99216.75;105034;1274;76399;-29
2022/03/24 04:49:28;;;;;;;19.30;9.70;;;;;;;1.72;62.41;99220.13;104888;1271;73396;-29
2022/03/24 04:51:57;;;;;;;21.80;11.30;;;;;;;1.67;62.24;99220.33;104890;1271;60975;-29
2022/03/24 04:54:26;;;;;;;18.80;10.90;;;;;;;1.66;62.16;99219.34;104780;1273;61214;-29
2022/03/24 04:56:57;;;;;;;20.10;10.90;;;;;;;1.73;62.20;99220.94;105006;1271;76379;-29
2022/03/24 04:59:28;;;;;;;19.70;11.00;;;;;;;1.76;62.08;99223.36;105130;1271;76176;-28
2022/03/24 05:01:57;;;;;;;16.80;9.40;;;;;;;1.85;61.95;99227.63;105010;1271;72253;-29
2022/03/24 05:04:27;;;;;;;18.80;11.50;;;;;;;1.92;61.97;99231.78;104957;1271;61049;-29
2022/03/24 05:07:03;;;;;;;19.50;8.70;;;;;;;1.99;61.71;99236.97;105146;1271;61092;-29
2022/03/24 05:09:33;;;;;;;19.00;10.80;;;;;;;2.04;61.38;99234.67;105115;1271;75739;-28
2022/03/24 05:12:03;;;;;;;17.00;7.70;;;;;;;2.17;61.25;99229.86;105161;1271;75726;-28
2022/03/24 05:14:33;;;;;;;15.80;8.90;;;;;;;2.20;61.07;99228.49;105028;1271;74510;-29
2022/03/24 05:17:03;;;;;;;19.00;9.50;;;;;;;2.24;61.04;99227.14;104996;1272;61121;-28
2022/03/24 05:19:34;;;;;;;22.50;13.20;;;;;;;2.28;60.80;99227.98;104891;1271;61039;-28
2022/03/24 05:22:04;;;;;;;18.30;11.10;;;;;;;2.37;60.61;99232.23;105073;1274;75539;-29
2022/03/24 05:24:33;;;;;;;16.70;8.60;;;;;;;2.48;60.59;99234.31;104828;1271;75873;-28
2022/03/24 05:27:05;;;;;;;17.30;10.40;;;;;;;2.58;60.46;99235.90;104802;1271;73366;-28
2022/03/24 05:29:36;;;;;;;20.00;9.90;;;;;;;2.63;60.51;99240.17;104944;1271;61026;-29
2022/03/24 05:32:06;;;;;;;15.20;8.00;;;;;;;2.65;60.08;99240.73;104966;1271;61074;-28
2022/03/24 05:34:36;;;;;;;20.50;8.50;;;;;;;2.73;60.07;99242.05;104787;1271;74825;-28
2022/03/24 05:37:06;;;;;;;21.60;10.60;;;;;;;2.82;60.33;99244.60;104824;1271;74942;-29
2022/03/24 05:39:35;;;;;;;16.60;9.50;;;;;;;2.96;59.89;99243.95;105141;1271;72426;-29
2022/03/24 05:42:05;;;;;;;16.80;9.00;;;;;;;3.07;59.27;99247.02;105103;1271;61683;-28
2022/03/24 05:44:35;;;;;;;20.90;8.80;;;;;;;3.10;59.15;99248.59;105138;1271;62060;-28
2022/03/24 05:47:06;;;;;;;14.30;8.20;;;;;;;3.04;59.08;99245.29;105077;1271;75333;-29
2022/03/24 05:49:35;;;;;;;16.40;9.90;;;;;;;3.21;59.20;99245.84;105106;1272;76092;-28
2022/03/24 05:52:06;;;;;;;12.60;7.60;;;;;;;3.25;59.08;99244.80;105067;1271;74383;-28
2022/03/24 05:54:36;;;;;;;18.70;8.60;;;;;;;3.31;58.15;99242.84;105054;1271;61148;-29
2022/03/24 05:57:05;;;;;;;16.90;8.40;;;;;;;3.27;58.44;99245.58;104844;1271;61029;-28
2022/03/24 05:59:34;;;;;;;16.80;9.20;;;;;;;3.33;58.12;99248.01;105064;1271;75493;-28
2022/03/24 06:02:05;;;;;;;13.30;9.30;;;;;;;3.39;58.13;99242.91;105131;1271;76160;-29
2022/03/24 06:04:35;;;;;;;11.70;6.90;;;;;;;3.44;58.35;99245.80;104813;1271;73617;-28
2022/03/24 06:07:04;;;;;;;28.20;8.00;;;;;;;3.57;58.88;99246.01;105149;1271;61048;-28
2022/03/24 06:09:34;;;;;;;13.80;8.20;;;;;;;3.54;57.95;99246.89;105044;1271;61760;-29
2022/03/24 06:12:06;;;;;;;8.60;4.80;;;;;;;3.67;58.07;99246.23;104772;1271;74496;-28
2022/03/24 06:14:36;;;;;;;17.00;9.40;;;;;;;3.66;57.64;99249.17;105090;1271;74880;-29
2022/03/24 06:17:06;;;;;;;16.10;9.90;;;;;;;3.72;57.58;99244.59;105125;1271;72856;-29
2022/03/24 06:19:36;;;;;;;21.50;7.90;;;;;;;3.77;57.31;99246.26;105081;1271;61032;-29
2022/03/24 06:22:07;;;;;;;11.30;5.70;;;;;;;3.88;57.30;99250.53;105098;1271;61307;-28
2022/03/24 06:24:37;;;;;;;19.60;10.50;;;;;;;3.93;56.96;99245.63;105103;1274;75515;-28
2022/03/24 06:27:13;;;;;;;13.00;6.00;;;;;;;3.75;56.70;99242.73;105064;1271;76187;-27
2022/03/24 06:29:42;;;;;;;11.50;7.10;;;;;;;3.80;56.42;99245.23;105133;1271;74313;-28
2022/03/24 06:32:14;;;;;;;12.90;7.00;;;;;;;3.90;56.60;99243.54;105119;1271;61048;-27
2022/03/24 06:34:46;;;;;;;14.20;7.20;;;;;;;3.94;56.57;99245.24;105061;1271;61793;-27
2022/03/24 06:37:16;;;;;;;14.40;7.90;;;;;;;4.06;55.96;99246.66;104972;1271;75418;-28
2022/03/24 06:39:45;;;;;;;14.40;9.30;;;;;;;4.07;56.02;99245.23;105006;1271;74963;-27
2022/03/24 06:42:17;;;;;;;17.60;8.60;;;;;;;4.11;56.10;99243.35;104793;1271;74647;-29
2022/03/24 06:44:48;;;;;;;14.10;7.80;;;;;;;4.13;56.31;99245.29;104758;1271;61316;-29
2022/03/24 06:47:18;;;;;;;13.00;7.90;;;;;;;4.28;56.31;99246.23;104783;1271;61880;-28
2022/03/24 06:49:48;;;;;;;16.80;9.00;;;;;;;4.59;55.73;99246.15;104789;1271;74993;-29
2022/03/24 06:52:18;;;;;;;14.60;9.30;;;;;;;4.50;55.49;99249.04;105172;1271;75791;-28
2022/03/24 06:54:47;;;;;;;15.80;6.10;;;;;;;4.59;55.07;99251.46;104981;1271;74507;-29
2022/03/24 06:57:17;;;;;;;15.20;8.60;;;;;;;4.79;54.68;99250.27;105121;1271;61338;-28
2022/03/24 06:59:47;;;;;;;12.10;6.90;;;;;;;4.82;54.61;99252.14;105154;1271;61071;-28
2022/03/24 07:02:17;;;;;;;12.70;6.70;;;;;;;4.84;54.19;99251.02;105131;1271;75537;-29
2022/03/24 07:04:50;;;;;;;17.10;9.10;;;;;;;4.94;54.23;99255.45;105113;1271;75989;-28
2022/03/24 07:07:21;;;;;;;17.40;10.80;;;;;;;4.93;54.17;99253.42;105121;1271;74813;-28
2022/03/24 07:09:51;;;;;;;15.40;9.00;;;;;;;4.91;53.75;99251.31;104911;1271;61189;-29
2022/03/24 07:12:20;;;;;;;13.90;8.20;;;;;;;4.93;53.75;99252.60;104982;1271;61298;-28
2022/03/24 07:14:49;;;;;;;14.80;8.80;;;;;;;5.19;54.23;99248.24;105071;1270;74495;-28
2022/03/24 07:17:19;;;;;;;12.70;7.20;;;;;;;5.26;53.26;99252.86;105163;1271;75738;-29
2022/03/24 07:19:48;;;;;;;15.20;7.50;;;;;;;5.17;52.79;99250.41;105125;1271;74585;-27
2022/03/24 07:22:18;;;;;;;12.80;7.80;;;;;;;5.29;52.65;99251.98;105144;1271;61090;-27
2022/03/24 07:24:48;;;;;;;15.60;7.40;;;;;;;5.46;52.53;99245.02;105144;1271;61032;-27
2022/03/24 07:27:17;;;;;;;12.10;6.30;;;;;;;5.38;52.36;99246.85;104963;1271;74519;-29
2022/03/24 07:29:47;;;;;;;16.90;8.20;;;;;;;5.43;52.57;99247.58;104971;1271;75804;-27
2022/03/24 07:32:16;;;;;;;11.60;6.10;;;;;;;5.63;51.88;99249.58;104928;1270;73392;-27
2022/03/24 07:34:46;;;;;;;13.30;6.40;;;;;;;5.62;51.62;99245.48;104900;1271;61134;-27
2022/03/24 07:37:15;;;;;;;7.70;5.00;;;;;;;5.81;51.61;99249.39;104798;1271;61206;-28
2022/03/24 07:39:45;;;;;;;9.90;6.20;;;;;;;6.12;50.84;99228.48;104678;1271;74658;-27
2022/03/24 07:42:15;;;;;;;12.90;6.20;;;;;;;6.38;50.60;99239.33;104881;1271;74686;-27
2022/03/24 07:44:44;;;;;;;12.70;6.90;;;;;;;6.22;49.69;99235.61;104810;1271;74345;-27
2022/03/24 07:47:14;;;;;;;10.10;5.90;;;;;;;6.04;49.82;99233.09;104943;1271;61104;-27
2022/03/24 07:49:45;;;;;;;15.30;6.90;;;;;;;6.09;50.23;99228.77;104762;1271;61102;-27
2022/03/24 07:52:15;;;;;;;10.40;6.10;;;;;;;6.29;50.23;99233.64;104898;1271;75671;-27
2022/03/24 07:54:55;;;;;;;8.40;5.50;;;;;;;6.50;49.68;99233.08;105139;1271;76086;-27
2022/03/24 07:57:26;;;;;;;23.60;6.00;;;;;;;6.41;48.92;99219.50;105003;1271;74357;-27
2022/03/24 07:59:59;;;;;;;9.60;6.30;;;;;;;6.29;49.17;99239.71;104731;1271;61230;-27
2022/03/24 08:02:28;;;;;;;9.20;5.30;;;;;;;6.21;49.31;99243.93;104777;1271;61893;-27
2022/03/24 08:04:57;;;;;;;10.10;6.10;;;;;;;6.48;48.61;99228.05;105072;1271;75544;-27
2022/03/24 08:07:27;;;;;;;9.50;6.00;;;;;;;6.39;49.09;99234.60;105125;1271;76257;-27
2022/03/24 08:10:17;;;;;;;9.00;5.70;;;;;;;6.64;49.12;99222.05;104936;1271;75656;-27
2022/03/24 08:12:47;;;;;;;12.40;5.90;;;;;;;6.58;47.12;99216.03;104732;1272;62086;-27
2022/03/24 08:15:16;;;;;;;14.50;7.40;;;;;;;6.46;47.87;99228.69;104810;1271;61191;-27
2022/03/24 08:17:47;;;;;;;9.00;5.70;;;;;;;6.51;48.35;99227.45;104995;1271;75345;-27
2022/03/24 08:20:16;;;;;;;10.00;6.50;;;;;;;6.45;48.38;99217.47;104819;1271;74983;-27
2022/03/24 08:22:45;;;;;;;7.90;5.40;;;;;;;6.44;48.80;99222.23;104893;1271;74208;-27
2022/03/24 08:25:17;;;;;;;8.90;6.10;;;;;;;6.70;48.49;99223.21;105207;1271;61814;-27
2022/03/24 08:27:46;;;;;;;26.10;8.10;;;;;;;6.50;47.78;99221.16;104793;1271;61137;-27
2022/03/24 08:30:16;;;;;;;9.50;5.90;;;;;;;6.58;47.80;99219.84;104888;1271;74260;-27
2022/03/24 08:32:45;;;;;;;6.80;4.80;;;;;;;6.63;47.92;99222.60;105066;1271;74944;-27
2022/03/24 08:35:14;;;;;;;17.10;6.70;;;;;;;6.96;46.95;99217.45;104930;1270;74437;-28
2022/03/24 08:37:44;;;;;;;9.30;5.80;;;;;;;6.65;46.34;99223.21;104893;1271;61147;-27
2022/03/24 08:40:13;;;;;;;12.90;6.10;;;;;;;6.88;45.60;99230.02;104938;1271;62017;-27
2022/03/24 08:42:44;;;;;;;12.00;6.80;;;;;;;7.03;46.60;99228.58;105001;1271;74589;-28
2022/03/24 08:45:14;;;;;;;11.60;6.20;;;;;;;6.80;46.53;99204.83;104931;1271;75800;-29
2022/03/24 08:47:44;;;;;;;13.70;7.80;;;;;;;6.91;46.84;99213.48;104754;1271;74986;-27
2022/03/24 08:50:13;;;;;;;19.10;9.80;;;;;;;6.97;46.85;99207.73;104907;1271;61172;-27
2022/03/24 08:52:43;;;;;;;10.60;6.50;;;;;;;6.83;46.95;99218.27;105023;1271;61884;-29
2022/03/24 08:55:14;;;;;;;13.40;6.70;;;;;;;6.77;46.11;99227.44;104855;1271;75567;-28
2022/03/24 08:57:44;;;;;;;14.40;6.80;;;;;;;6.83;45.93;99223.08;105092;1271;74972;-28
2022/03/24 09:00:15;;;;;;;14.50;7.10;;;;;;;6.88;45.47;99220.52;105110;1271;73376;-28
2022/03/24 09:02:47;;;;;;;10.50;5.90;;;;;;;6.88;45.36;99226.75;105112;1271;62071;-28
2022/03/24 09:05:17;;;;;;;16.70;4.90;;;;;;;7.15;45.44;99205.21;104971;1271;61048;-28
2022/03/24 09:07:47;;;;;;;8.60;4.90;;;;;;;7.16;44.58;99205.30;105001;1271;74954;-28
2022/03/24 09:10:16;;;;;;;8.30;5.00;;;;;;;6.95;45.51;99198.73;104840;1271;76005;-29
2022/03/24 09:12:46;;;;;;;28.40;6.10;;;;;;;7.29;44.05;99218.99;105136;1274;73369;-27
2022/03/24 09:15:18;;;;;;;7.40;4.90;;;;;;;7.38;43.78;99219.14;105136;1271;61179;-28
2022/03/24 09:17:48;;;;;;;9.70;4.50;;;;;;;7.47;43.39;99196.94;105124;1271;62087;-27
2022/03/24 09:20:38;;;;;;;8.80;5.60;;;;;;;6.99;43.71;99206.06;105101;1271;76704;-28
2022/03/24 09:23:08;;;;;;;8.10;5.00;;;;;;;7.20;43.43;99210.79;105162;1271;75047;-28
2022/03/24 09:25:38;;;;;;;12.50;6.30;;;;;;;7.37;44.25;99206.17;104867;1271;73153;-28
2022/03/24 09:28:08;;;;;;;9.10;5.40;;;;;;;7.37;42.93;99203.23;105107;1271;61783;-27
2022/03/24 09:30:37;;;;;;;8.40;5.20;;;;;;;7.50;42.78;99206.24;105163;1271;61818;-27
2022/03/24 09:33:08;;;;;;;6.60;4.00;;;;;;;7.80;42.97;99207.34;105084;1271;74665;-28
2022/03/24 09:35:38;;;;;;;7.10;4.80;;;;;;;7.67;42.49;99217.23;104969;1271;75005;-27
2022/03/24 09:38:07;;;;;;;7.20;4.80;;;;;;;7.78;42.19;99210.59;104997;1271;73160;-27
2022/03/24 09:40:39;;;;;;;6.40;4.40;;;;;;;7.93;42.47;99223.45;104785;1271;61949;-27
2022/03/24 09:43:08;;;;;;;6.50;4.50;;;;;;;8.01;40.85;99214.21;104817;1271;61107;-27
2022/03/24 09:45:38;;;;;;;6.20;4.30;;;;;;;8.12;40.80;99229.59;104934;1271;75547;-27
2022/03/24 09:48:10;;;;;;;8.10;5.10;;;;;;;7.92;39.67;99223.30;104825;1271;76428;-27
2022/03/24 09:50:44;;;;;;;6.10;4.00;;;;;;;7.89;40.59;99225.04;105015;1271;74610;-27
2022/03/24 09:53:14;;;;;;;8.00;4.60;;;;;;;8.07;41.38;99212.95;104809;1271;62076;-27
2022/03/24 09:55:45;;;;;;;7.90;4.70;;;;;;;8.18;42.10;99192.69;105139;1271;61156;-27
2022/03/24 09:58:17;;;;;;;6.40;4.10;;;;;;;8.04;42.22;99217.13;105093;1274;75702;-27
2022/03/24 10:00:47;;;;;;;7.70;5.30;;;;;;;8.39;41.19;99200.55;104998;1271;76051;-26
2022/03/24 10:03:18;;;;;;;8.00;5.10;;;;;;;8.14;39.90;99197.95;104941;1271;74614;-27
2022/03/24 10:06:02;;;;;;;8.40;5.00;;;;;;;8.21;40.82;99211.69;104861;1271;61052;-28
2022/03/24 10:08:32;;;;;;;7.20;4.60;;;;;;;8.14;39.26;99218.86;105052;1270;62324;-28
2022/03/24 10:11:09;;;;;;;7.50;4.60;;;;;;;8.09;39.70;99199.35;104943;1271;75591;-29
2022/03/24 10:13:55;;;;;;;10.60;4.60;;;;;;;8.05;40.02;99199.57;104744;1271;76077;-30
2022/03/24 10:16:35;;;;;;;6.80;4.70;;;;;;;8.53;40.20;99207.38;104799;1271;74429;-29
2022/03/24 10:19:27;;;;;;;5.50;4.20;;;;;;;8.59;39.17;99203.54;104840;1271;61757;-27
2022/03/24 10:21:56;;;;;;;7.30;4.80;;;;;;;8.33;39.39;99216.39;104766;1271;62028;-27
2022/03/24 10:24:26;;;;;;;5.80;3.70;;;;;;;8.05;39.93;99200.97;104783;1271;75792;-28
2022/03/24 10:27:02;;;;;;;10.10;4.60;;;;;;;8.64;40.24;99202.30;105030;1272;76121;-31
2022/03/24 10:29:32;;;;;;;7.50;4.80;;;;;;;8.66;39.58;99214.96;105035;1271;73334;-30
2022/03/24 10:32:14;;;;;;;8.60;5.10;;;;;;;8.89;39.19;99206.47;104905;1271;62084;-30
2022/03/24 10:34:48;;;;;;;6.20;4.30;;;;;;;8.86;38.48;99215.33;105095;1271;61029;-30
2022/03/24 10:37:19;;;;;;;8.60;4.90;;;;;;;8.56;37.38;99209.77;104860;1271;74650;-30
2022/03/24 10:39:57;;;;;;;8.70;4.90;;;;;;;8.26;37.56;99212.23;104886;1271;75876;-28
2022/03/24 10:42:29;;;;;;;17.10;4.70;;;;;;;8.35;37.70;99208.79;105018;1271;74391;-28
2022/03/24 10:45:19;;;;;;;6.10;3.80;;;;;;;8.79;38.71;99213.89;104794;1271;62213;-27
2022/03/24 10:47:56;;;;;;;9.00;4.60;;;;;;;8.85;38.39;99178.47;104739;1274;62007;-27
2022/03/24 10:50:42;;;;;;;11.50;4.40;;;;;;;8.44;38.81;99197.63;105093;1271;74559;-28
2022/03/24 10:53:16;;;;;;;27.00;5.30;;;;;;;8.35;39.00;99205.70;104793;1271;75847;-28
2022/03/24 10:56:03;;;;;;;7.60;4.30;;;;;;;8.32;38.90;99192.95;105091;1271;73444;-28
2022/03/24 10:58:38;;;;;;;7.30;4.70;;;;;;;8.44;39.02;99196.27;105037;1271;61872;-28
2022/03/24 11:01:09;;;;;;;11.80;6.10;;;;;;;8.37;39.81;99175.28;104956;1271;61074;-27
2022/03/24 11:03:39;;;;;;;9.70;5.00;;;;;;;8.46;39.80;99212.39;105141;1271;75503;-27
2022/03/24 11:06:17;;;;;;;6.70;4.50;;;;;;;8.82;38.65;99198.27;104852;1271;75010;-27
2022/03/24 11:08:56;;;;;;;7.80;4.70;;;;;;;8.67;38.99;99185.70;104832;1271;73680;-26
2022/03/24 11:11:25;;;;;;;7.90;5.30;;;;;;;9.00;38.81;99200.99;104767;1271;61847;-27
2022/03/24 11:13:56;;;;;;;10.00;4.90;;;;;;;8.58;36.22;99199.43;104820;1271;61147;-27
2022/03/24 11:16:30;;;;;;;6.40;4.40;;;;;;;8.95;36.76;99190.63;104885;1271;75542;-27
2022/03/24 11:19:01;;;;;;;7.50;4.20;;;;;;;8.73;37.34;99190.98;105118;1271;75205;-27
2022/03/24 11:21:34;;;;;;;7.10;4.70;;;;;;;8.64;38.40;99173.58;105059;1271;74396;-27
2022/03/24 11:24:06;;;;;;;6.30;4.50;;;;;;;8.62;38.45;99180.27;104977;1274;61864;-27
2022/03/24 11:26:36;;;;;;;8.20;4.70;;;;;;;8.50;38.64;99179.58;104639;1274;61772;-27
2022/03/24 11:29:06;;;;;;;10.10;4.70;;;;;;;8.65;38.17;99172.65;105108;1271;74446;-29
2022/03/24 11:31:36;;;;;;;8.90;4.40;;;;;;;8.36;37.27;99169.48;105067;1271;75853;-27
2022/03/24 11:34:06;;;;;;;6.20;4.00;;;;;;;8.68;37.67;99161.75;105006;1271;73303;-27
2022/03/24 11:36:36;;;;;;;9.30;5.30;;;;;;;8.37;37.32;99147.95;104802;1271;62054;-30
2022/03/24 11:39:09;;;;;;;8.20;4.90;;;;;;;8.41;37.14;99153.73;104933;1271;61038;-27
2022/03/24 11:41:53;;;;;;;7.70;4.90;;;;;;;8.04;36.85;99167.33;104739;1271;75494;-27
2022/03/24 11:44:36;;;;;;;13.00;4.70;;;;;;;8.25;37.08;99146.54;105146;1271;75934;-27
2022/03/24 11:47:14;;;;;;;7.90;4.30;;;;;;;8.35;36.74;99165.02;105035;1271;72323;-27